Portia, Arkansas
Current Conditions -  °F | °C
As of 6:15 AM on Monday 26 Jan 2015 (Local Time) from KARG Reporting Station
Broken Clouds Broken Clouds  
Wind Chill: 27°   Ceiling: 2100
Heat Index: 32°   Visibility: 10mi
Dew Point: 27°   Wind: 5mph
Humidity: 80%   Direction: 290°WNW
Pressure: 30.08"   Gusts: NA
Location:  36.09°N, 91.07°W
Report Text: KARG 261215Z AUTO 29004KT 10SM BKN021 00/M03 A3008 RMK AO1
Loading
Personal Weather Stations






























Interactive Weather Map New forecast layout! Learn more

10-Day Weather Forecast

Advertisements
Track Severe Weather on mobile